Time;durP1;ratioP1;P1;durP2;ratioP2;P2;SDS_P1;SDS_P2;PMS_P1;PMS_P2;Temp;Humidity;BMP_temperature;BMP_pressure;BME280_temperature;BME280_humidity;BME280_pressure;Samples;Min_cycle;Max_cycle;Signal;HPM_P1;HPM_P2
2023/03/19 00:01:56;;;;;;;47.63;20.20;;;;;;;-141.97;62.71;47642.09;4968489;28;20983;-85
2023/03/19 00:04:23;;;;;;;43.10;19.37;;;;;;;-141.97;63.64;47619.03;4953685;29;20641;-85
2023/03/19 00:06:49;;;;;;;45.33;20.53;;;;;;;-141.97;63.65;47670.91;4953702;29;20652;-87
2023/03/19 00:09:14;;;;;;;48.50;19.60;;;;;;;-141.97;63.02;47647.84;4953431;29;20479;-85
2023/03/19 00:11:40;;;;;;;47.73;20.43;;;;;;;-141.97;62.81;47694.00;4953582;29;20434;-85
2023/03/19 00:14:05;;;;;;;50.20;22.10;;;;;;;-141.97;62.97;47651.69;4952183;29;20595;-85
2023/03/19 00:16:31;;;;;;;51.77;22.33;;;;;;;-141.97;63.19;47584.44;4954000;29;20176;-84
2023/03/19 00:18:56;;;;;;;45.20;19.47;;;;;;;-141.97;64.08;47546.00;4953487;29;20180;-85
2023/03/19 00:21:22;;;;;;;43.60;19.30;;;;;;;-141.97;64.84;47592.13;4953609;29;20211;-85
2023/03/19 00:23:47;;;;;;;42.00;17.57;;;;;;;-141.97;65.07;47636.31;4951854;29;20227;-85
2023/03/19 00:26:13;;;;;;;34.83;16.13;;;;;;;-141.97;65.94;47611.34;4953253;29;20172;-84
2023/03/19 00:28:38;;;;;;;32.60;14.87;;;;;;;-141.97;66.01;47707.44;4953436;29;20208;-85
2023/03/19 00:31:13;;;;;;;35.17;15.70;;;;;;;-141.97;66.54;47715.13;4953513;29;20208;-85
2023/03/19 00:33:39;;;;;;;39.13;16.40;;;;;;;-141.97;66.83;47661.31;4953414;29;20617;-85
2023/03/19 00:36:06;;;;;;;36.93;16.67;;;;;;;-141.97;66.55;47709.38;4952592;28;20443;-83
2023/03/19 00:38:33;;;;;;;33.07;15.03;;;;;;;-141.97;66.10;47707.44;4958530;29;20436;-84
2023/03/19 00:40:59;;;;;;;28.57;11.93;;;;;;;-141.97;66.32;47674.78;4954270;29;20468;-85
2023/03/19 00:43:25;;;;;;;30.63;13.57;;;;;;;-141.97;66.38;47686.31;4952903;29;20883;-86
2023/03/19 00:45:51;;;;;;;32.00;15.00;;;;;;;-141.97;66.08;47736.28;4952945;29;20215;-86
2023/03/19 00:48:17;;;;;;;30.07;14.03;;;;;;;-141.97;66.80;47680.53;4953099;29;20408;-85
2023/03/19 00:50:43;;;;;;;28.40;14.00;;;;;;;-141.97;66.09;47653.63;4953164;29;20172;-86
2023/03/19 00:53:09;;;;;;;33.33;14.70;;;;;;;-141.97;64.79;47690.16;4951899;29;20217;-86
2023/03/19 00:55:34;;;;;;;33.77;15.97;;;;;;;-141.97;63.96;47642.09;4953168;29;20168;-85
2023/03/19 00:58:00;;;;;;;28.07;13.13;;;;;;;-141.97;63.71;47709.38;4951812;29;20792;-86
2023/03/19 01:00:26;;;;;;;35.40;17.07;;;;;;;-141.97;63.24;47690.16;4951882;29;20180;-85
2023/03/19 01:02:51;;;;;;;26.20;13.20;;;;;;;-141.97;62.69;47743.97;4967979;28;20204;-86
2023/03/19 01:05:17;;;;;;;38.27;17.70;;;;;;;-141.97;62.85;47667.06;4952888;29;20169;-86
2023/03/19 01:07:42;;;;;;;24.37;12.47;;;;;;;-141.97;63.15;47590.19;4952927;29;20177;-86
2023/03/19 01:10:09;;;;;;;24.17;11.23;;;;;;;-141.97;63.49;47601.72;4951638;28;20697;-85
2023/03/19 01:12:34;;;;;;;23.00;11.00;;;;;;;-141.97;64.02;47680.53;4953128;29;20590;-86
2023/03/19 01:15:00;;;;;;;23.60;10.73;;;;;;;-141.97;64.52;47649.78;4952770;29;20496;-85
2023/03/19 01:17:25;;;;;;;24.10;11.10;;;;;;;-141.97;64.86;47655.53;4952789;29;20264;-86
2023/03/19 01:19:51;;;;;;;24.93;11.13;;;;;;;-141.97;64.31;47521.00;4952827;29;20165;-86
2023/03/19 01:22:16;;;;;;;24.67;12.87;;;;;;;-141.97;64.23;47553.69;4952944;29;20188;-85
2023/03/19 01:24:43;;;;;;;25.60;12.73;;;;;;;-141.97;64.13;47676.69;4953196;29;20173;-86
2023/03/19 01:27:09;;;;;;;28.53;11.90;;;;;;;-141.97;64.31;47638.25;4954434;29;20180;-86
2023/03/19 01:29:35;;;;;;;30.57;12.63;;;;;;;-141.97;64.37;47663.22;4953786;29;20397;-86
2023/03/19 01:32:00;;;;;;;27.77;12.73;;;;;;;-141.97;64.69;47607.50;4952920;29;20435;-86
2023/03/19 01:34:26;;;;;;;31.93;14.33;;;;;;;-141.97;64.22;47576.75;4953727;29;20173;-86
2023/03/19 01:36:51;;;;;;;31.93;14.13;;;;;;;-141.97;64.43;47715.13;4952294;29;20546;-86
2023/03/19 01:39:17;;;;;;;24.97;11.70;;;;;;;-141.97;63.97;47701.69;4953555;29;20509;-86
2023/03/19 01:41:43;;;;;;;31.07;12.43;;;;;;;-141.97;63.74;47569.06;4951927;29;20184;-86
2023/03/19 01:44:35;;;;;;;24.07;11.63;;;;;;;-141.97;65.00;47630.56;4953693;29;20413;-87
2023/03/19 01:47:06;;;;;;;23.57;10.43;;;;;;;-141.97;65.47;47665.16;4952075;28;20173;-86
2023/03/19 01:49:32;;;;;;;24.27;11.00;;;;;;;-141.97;65.98;47619.03;4956967;29;20491;-87
2023/03/19 01:52:01;;;;;;;38.33;13.80;;;;;;;-141.97;66.28;47684.38;4956222;29;20408;-85
2023/03/19 01:54:30;;;;;;;45.03;18.17;;;;;;;-141.97;66.22;47695.91;4954571;29;20626;-86
2023/03/19 01:57:02;;;;;;;31.87;13.63;;;;;;;-141.97;66.13;47649.78;4956147;29;20621;-86
2023/03/19 01:59:38;;;;;;;38.77;16.27;;;;;;;-141.97;65.89;47546.00;4954852;29;20420;-86
2023/03/19 02:02:16;;;;;;;34.53;15.10;;;;;;;-141.97;65.82;47680.53;4955968;29;20451;-87
2023/03/19 02:04:43;;;;;;;35.83;17.30;;;;;;;-141.97;65.47;47765.09;4956777;29;20840;-86
2023/03/19 02:07:10;;;;;;;34.50;15.73;;;;;;;-141.97;64.49;47572.91;4954955;29;20412;-87
2023/03/19 02:09:36;;;;;;;39.77;17.83;;;;;;;-141.97;63.94;47711.28;4954348;29;20553;-86
2023/03/19 02:12:01;;;;;;;42.27;19.33;;;;;;;-141.97;63.90;47649.78;4954666;28;20853;-85
2023/03/19 02:14:27;;;;;;;38.57;18.63;;;;;;;-141.97;64.05;47544.06;4955955;29;20169;-84
2023/03/19 02:16:56;;;;;;;42.30;16.73;;;;;;;-141.97;63.69;47655.53;4956428;29;20173;-85
2023/03/19 02:19:34;;;;;;;32.77;14.27;;;;;;;-141.97;63.47;47728.59;4955601;29;20169;-85
2023/03/19 02:22:00;;;;;;;33.33;15.20;;;;;;;-141.97;62.42;47709.38;4956303;29;20412;-85
2023/03/19 02:24:34;;;;;;;39.97;18.93;;;;;;;-141.97;62.35;47730.50;4970448;28;20409;-86
2023/03/19 02:27:00;;;;;;;37.23;17.13;;;;;;;-141.97;61.99;47674.78;4955586;29;20408;-85
2023/03/19 02:29:25;;;;;;;41.43;18.87;;;;;;;-141.97;61.83;47688.22;4955691;29;20811;-86
2023/03/19 02:31:50;;;;;;;38.00;16.40;;;;;;;-141.97;61.13;47651.69;4955878;29;20958;-86
2023/03/19 02:34:19;;;;;;;40.70;15.37;;;;;;;-141.97;60.29;47722.81;4955516;29;20248;-86
2023/03/19 02:36:50;;;;;;;32.37;15.33;;;;;;;-141.97;59.56;47595.97;4955942;29;20161;-86
2023/03/19 02:39:26;;;;;;;37.53;16.80;;;;;;;-141.97;59.26;47649.78;4970239;28;20852;-85
2023/03/19 02:41:53;;;;;;;35.30;17.17;;;;;;;-141.97;59.15;47590.19;4955420;28;20475;-85
2023/03/19 02:44:19;;;;;;;36.33;17.67;;;;;;;-141.97;58.14;47694.00;4955242;29;20436;-86
2023/03/19 02:46:45;;;;;;;27.60;14.43;;;;;;;-141.97;58.62;47665.16;4955625;29;20868;-87
2023/03/19 02:49:11;;;;;;;24.50;12.37;;;;;;;-141.97;58.04;47647.84;4955240;29;20401;-85
2023/03/19 02:51:36;;;;;;;25.50;13.10;;;;;;;-141.97;57.25;47763.19;4955591;29;20411;-86
2023/03/19 02:54:02;;;;;;;29.60;14.70;;;;;;;-141.97;57.26;47742.03;4953967;29;20200;-85
2023/03/19 02:56:28;;;;;;;31.67;15.00;;;;;;;-141.97;57.63;47676.69;4956262;28;20179;-85
2023/03/19 02:58:53;;;;;;;35.97;16.07;;;;;;;-141.97;57.34;47661.31;4953199;28;20259;-87
2023/03/19 03:01:19;;;;;;;25.20;12.60;;;;;;;-141.97;57.19;47546.00;4954872;29;20694;-86
2023/03/19 03:03:45;;;;;;;21.80;10.23;;;;;;;-141.97;57.52;47576.75;4955378;29;20192;-86
2023/03/19 03:06:10;;;;;;;21.10;9.93;;;;;;;-141.97;57.93;47603.66;4954904;29;20204;-86
2023/03/19 03:08:36;;;;;;;20.63;8.80;;;;;;;-141.97;58.99;47726.66;4955194;29;20192;-86
2023/03/19 03:11:01;;;;;;;19.33;9.17;;;;;;;-141.97;59.29;47663.22;4953710;29;20232;-86
2023/03/19 03:13:27;;;;;;;23.90;11.10;;;;;;;-141.97;60.04;47672.84;4955096;29;20192;-86
2023/03/19 03:15:52;;;;;;;31.43;12.90;;;;;;;-141.97;59.97;47669.00;4954634;29;20320;-86
2023/03/19 03:18:18;;;;;;;26.90;11.73;;;;;;;-141.97;60.49;47661.31;4955080;29;20203;-85
2023/03/19 03:20:44;;;;;;;28.87;11.37;;;;;;;-141.97;60.62;47576.75;4954533;29;20172;-86
2023/03/19 03:23:10;;;;;;;27.50;12.63;;;;;;;-141.97;59.93;47690.16;4954550;29;20740;-86
2023/03/19 03:25:35;;;;;;;25.47;11.60;;;;;;;-141.97;59.39;47611.34;4954682;29;20212;-86
2023/03/19 03:28:01;;;;;;;23.27;11.13;;;;;;;-141.97;60.23;47599.81;4969937;28;20502;-86
2023/03/19 03:30:27;;;;;;;28.30;12.53;;;;;;;-141.97;60.81;47632.47;4953845;29;20173;-86
2023/03/19 03:32:52;;;;;;;25.33;11.77;;;;;;;-141.97;60.98;47657.47;4954898;29;20840;-87
2023/03/19 03:35:21;;;;;;;37.00;12.70;;;;;;;-141.97;60.81;47655.53;4954873;29;20173;-86
2023/03/19 03:37:50;;;;;;;24.73;12.33;;;;;;;-141.97;61.03;47636.31;4954418;29;20243;-87
2023/03/19 03:40:16;;;;;;;22.70;10.63;;;;;;;-141.97;60.92;47653.63;4954280;29;20400;-86
2023/03/19 03:42:42;;;;;;;27.63;13.23;;;;;;;-141.97;60.53;47688.22;4954664;29;20459;-86
2023/03/19 03:45:09;;;;;;;29.17;14.33;;;;;;;-141.97;60.16;47547.91;4954561;29;20172;-86
2023/03/19 03:47:36;;;;;;;29.30;13.63;;;;;;;-141.97;60.68;47749.72;4954411;29;20396;-86
2023/03/19 03:50:04;;;;;;;29.37;13.47;;;;;;;-141.97;60.51;47649.78;4954532;29;20787;-85
2023/03/19 03:52:30;;;;;;;26.97;13.20;;;;;;;-141.97;60.61;47594.03;4955015;29;20400;-86
2023/03/19 03:54:59;;;;;;;41.33;16.57;;;;;;;-141.97;60.39;47607.50;4955989;29;20920;-86
2023/03/19 03:57:26;;;;;;;52.20;21.00;;;;;;;-141.97;59.84;47661.31;4954947;29;20401;-86
2023/03/19 03:59:52;;;;;;;53.50;21.07;;;;;;;-141.97;59.65;47634.41;4955045;29;20979;-86
2023/03/19 04:02:17;;;;;;;54.63;22.50;;;;;;;-141.97;59.31;47626.72;4959745;29;20460;-86
2023/03/19 04:04:43;;;;;;;58.50;24.57;;;;;;;-141.97;58.64;47678.63;4956384;28;20184;-87
2023/03/19 04:07:08;;;;;;;32.53;14.80;;;;;;;-141.97;58.57;47628.63;4958302;29;20626;-86
2023/03/19 04:09:34;;;;;;;33.53;15.50;;;;;;;-141.97;58.62;47684.38;4954314;29;20228;-86
2023/03/19 04:11:59;;;;;;;34.03;15.93;;;;;;;-141.97;58.88;47615.19;4952759;28;20169;-85
2023/03/19 04:14:25;;;;;;;27.97;14.80;;;;;;;-141.97;59.04;47592.13;4955096;29;20543;-85
2023/03/19 04:16:51;;;;;;;38.87;17.00;;;;;;;-141.97;59.51;47718.97;4956077;28;20172;-87
2023/03/19 04:19:16;;;;;;;34.93;16.43;;;;;;;-141.97;59.29;47672.84;4955640;28;20397;-85
2023/03/19 04:21:43;;;;;;;32.00;15.40;;;;;;;-141.97;59.83;47790.09;4954923;29;20263;-85
2023/03/19 04:24:09;;;;;;;31.93;15.63;;;;;;;-141.97;60.25;47713.22;4954247;29;20203;-86
2023/03/19 04:26:36;;;;;;;30.73;14.87;;;;;;;-141.97;59.60;47559.44;4954209;29;20401;-86
2023/03/19 04:29:01;;;;;;;39.50;16.90;;;;;;;-141.97;60.38;47576.75;4954252;29;20676;-86
2023/03/19 04:31:27;;;;;;;28.27;13.40;;;;;;;-141.97;60.64;47684.38;4954140;29;20412;-85
2023/03/19 04:33:53;;;;;;;30.03;13.53;;;;;;;-141.97;61.02;47676.69;4954198;29;20168;-84
2023/03/19 04:36:18;;;;;;;25.53;12.23;;;;;;;-141.97;60.42;47678.63;4953677;29;20172;-85
2023/03/19 04:38:44;;;;;;;21.67;10.70;;;;;;;-141.97;60.98;47665.16;4952573;29;20593;-85
2023/03/19 04:41:09;;;;;;;26.33;11.57;;;;;;;-141.97;60.70;47592.13;4954107;29;20204;-86
2023/03/19 04:43:35;;;;;;;22.67;9.83;;;;;;;-141.97;60.03;47594.03;4952513;29;20196;-85
2023/03/19 04:46:01;;;;;;;26.17;12.37;;;;;;;-141.97;60.08;47649.78;4953875;29;20244;-85
2023/03/19 04:48:26;;;;;;;20.50;10.40;;;;;;;-141.97;60.18;47542.16;4953871;29;20165;-85
2023/03/19 04:50:52;;;;;;;21.43;10.50;;;;;;;-141.97;59.75;47715.13;4954317;29;20173;-85
2023/03/19 04:53:19;;;;;;;27.03;12.23;;;;;;;-141.97;59.34;47734.34;4954109;29;21147;-87
2023/03/19 04:55:46;;;;;;;27.17;11.93;;;;;;;-141.97;58.93;47590.19;4952425;29;20169;-87
2023/03/19 04:58:11;;;;;;;26.63;11.90;;;;;;;-141.97;58.55;47557.53;4968780;28;20522;-85
2023/03/19 05:00:37;;;;;;;26.60;10.70;;;;;;;-141.97;58.10;47734.34;4953161;29;20485;-85
2023/03/19 05:03:02;;;;;;;26.43;12.70;;;;;;;-141.97;58.24;47734.34;4952286;29;20719;-85
2023/03/19 05:05:28;;;;;;;31.83;12.53;;;;;;;-141.97;59.11;47717.06;4953653;29;20563;-86
2023/03/19 05:07:53;;;;;;;22.87;10.37;;;;;;;-141.97;59.26;47655.53;4954083;29;20488;-86
2023/03/19 05:10:19;;;;;;;25.37;11.90;;;;;;;-141.97;59.57;47672.84;4953496;29;20224;-87
2023/03/19 05:12:45;;;;;;;27.30;11.77;;;;;;;-141.97;60.24;47707.44;4953539;29;20455;-84
2023/03/19 05:15:10;;;;;;;26.53;12.40;;;;;;;-141.97;60.42;47707.44;4954045;29;20467;-85
2023/03/19 05:17:36;;;;;;;31.40;14.17;;;;;;;-141.97;58.96;47722.81;4952484;29;20176;-86
2023/03/19 05:20:03;;;;;;;29.70;14.20;;;;;;;-141.97;58.82;47657.47;4953796;29;20169;-86
2023/03/19 05:22:29;;;;;;;34.97;14.97;;;;;;;-141.97;57.77;47655.53;4953916;28;20487;-86
2023/03/19 05:24:55;;;;;;;50.10;21.70;;;;;;;-141.97;57.60;47615.19;4957261;29;20405;-85
2023/03/19 05:27:20;;;;;;;101.07;42.60;;;;;;;-141.97;57.99;47695.91;4957220;29;20251;-87
2023/03/19 05:29:47;;;;;;;68.00;31.10;;;;;;;-141.97;56.91;47669.00;4957702;29;20240;-87
2023/03/19 05:32:12;;;;;;;47.60;21.67;;;;;;;-141.97;56.62;47661.31;4957360;29;20216;-85
2023/03/19 05:34:38;;;;;;;30.33;13.23;;;;;;;-141.97;57.81;47647.84;4956725;29;20412;-86
2023/03/19 05:37:03;;;;;;;29.67;12.90;;;;;;;-141.97;58.59;47651.69;4957012;29;20179;-84
2023/03/19 05:39:29;;;;;;;36.47;17.37;;;;;;;-141.97;57.31;47680.53;4957135;29;20247;-87
2023/03/19 05:41:54;;;;;;;29.73;13.80;;;;;;;-141.97;56.84;47724.75;4971187;28;20562;-88
2023/03/19 05:44:20;;;;;;;34.83;15.50;;;;;;;-141.97;56.60;47678.63;4957008;29;20209;-85
2023/03/19 05:46:45;;;;;;;33.33;17.10;;;;;;;-141.97;57.17;47692.06;4957624;29;20165;-86
2023/03/19 05:49:11;;;;;;;41.60;20.20;;;;;;;-141.97;56.59;47615.19;4955422;29;20176;-88
2023/03/19 05:51:36;;;;;;;29.07;14.03;;;;;;;-141.97;56.33;47647.84;4956505;29;20169;-86
2023/03/19 05:54:02;;;;;;;41.97;17.93;;;;;;;-141.97;55.45;47605.56;4971107;28;20255;-86
2023/03/19 05:56:28;;;;;;;68.40;31.63;;;;;;;-141.97;55.24;47680.53;4954985;28;20639;-86
2023/03/19 05:58:54;;;;;;;44.67;22.07;;;;;;;-141.97;54.55;47588.28;4957187;29;20173;-86
2023/03/19 06:01:19;;;;;;;43.27;22.73;;;;;;;-141.97;54.42;47622.88;4954905;28;20423;-85
2023/03/19 06:03:45;;;;;;;31.13;14.07;;;;;;;-141.97;54.10;47572.91;4955999;29;20271;-87
2023/03/19 06:06:11;;;;;;;35.57;16.30;;;;;;;-141.97;54.82;47536.38;4956038;29;20192;-86
2023/03/19 06:08:36;;;;;;;28.83;14.17;;;;;;;-141.97;52.99;47665.16;4955217;28;20231;-86
2023/03/19 06:11:02;;;;;;;37.83;19.00;;;;;;;-141.97;52.31;47659.38;4958111;28;20474;-84
2023/03/19 06:13:27;;;;;;;39.17;21.70;;;;;;;-141.97;53.38;47657.47;4957672;29;20165;-86
2023/03/19 06:15:53;;;;;;;17.10;9.63;;;;;;;-141.97;54.11;47607.50;4957024;29;20252;-86
2023/03/19 06:18:18;;;;;;;18.00;7.93;;;;;;;-141.97;53.08;47619.03;4957464;29;20560;-85
2023/03/19 06:20:45;;;;;;;21.27;10.60;;;;;;;-141.97;52.69;47678.63;4956599;29;20254;-84
2023/03/19 06:23:10;;;;;;;20.93;13.03;;;;;;;-141.97;51.91;47720.91;4954169;29;20209;-85
2023/03/19 06:25:36;;;;;;;24.63;13.33;;;;;;;-141.97;51.60;47669.00;4970273;28;20412;-87
2023/03/19 06:28:02;;;;;;;31.37;16.17;;;;;;;-141.97;50.79;47521.00;4954391;28;20268;-86
2023/03/19 06:30:27;;;;;;;14.57;7.47;;;;;;;-141.97;51.36;47624.78;4955366;29;20564;-85
2023/03/19 06:32:53;;;;;;;13.97;7.37;;;;;;;-141.97;51.15;47578.66;4954440;28;20416;-85
2023/03/19 06:35:18;;;;;;;13.90;7.20;;;;;;;-141.97;51.26;47703.59;4953943;28;20210;-85
2023/03/19 06:37:44;;;;;;;13.90;7.60;;;;;;;-141.97;51.99;47634.41;4954032;28;20566;-87
2023/03/19 06:40:09;;;;;;;11.67;6.60;;;;;;;-141.97;51.38;47607.50;4954200;28;20189;-84
2023/03/19 06:42:35;;;;;;;16.30;7.20;;;;;;;-141.97;51.47;47742.03;4955418;29;20200;-86
2023/03/19 06:45:01;;;;;;;13.57;7.30;;;;;;;-141.97;51.11;47553.69;4955928;29;20275;-86
2023/03/19 06:47:26;;;;;;;12.80;7.17;;;;;;;-141.97;50.75;47615.19;4955548;29;20165;-85
2023/03/19 06:49:52;;;;;;;14.47;7.73;;;;;;;-141.97;50.12;47580.59;4955379;29;20904;-85
2023/03/19 06:52:17;;;;;;;22.97;10.27;;;;;;;-141.97;49.88;47580.59;4955181;29;20172;-85
2023/03/19 06:54:43;;;;;;;21.30;9.43;;;;;;;-141.97;49.53;47676.69;4954879;29;20174;-85
2023/03/19 06:57:08;;;;;;;19.63;8.73;;;;;;;-141.97;49.69;47695.91;4954070;29;20168;-86
2023/03/19 06:59:33;;;;;;;15.67;8.73;;;;;;;-141.97;49.23;47638.25;4955495;28;20176;-85
2023/03/19 07:01:59;;;;;;;14.97;7.63;;;;;;;-141.97;49.63;47722.81;4954984;29;20196;-84
2023/03/19 07:04:24;;;;;;;14.23;6.97;;;;;;;-141.97;49.02;47672.84;4956679;29;20165;-86
2023/03/19 07:06:50;;;;;;;15.73;8.23;;;;;;;-141.97;48.72;47655.53;4956262;29;20169;-86
2023/03/19 07:09:15;;;;;;;27.23;14.57;;;;;;;-141.97;47.51;47684.38;4955318;29;20414;-88
2023/03/19 07:11:41;;;;;;;18.67;9.60;;;;;;;-141.97;46.57;47718.97;4956185;29;20183;-88
2023/03/19 07:14:06;;;;;;;17.50;8.47;;;;;;;-141.97;46.68;47786.25;4954547;28;20161;-87
2023/03/19 07:16:32;;;;;;;34.77;16.57;;;;;;;-141.97;46.49;47684.38;4954824;29;20188;-89
2023/03/19 07:18:57;;;;;;;17.20;9.57;;;;;;;-141.97;46.56;47532.53;4986849;28;20560;-88
2023/03/19 07:21:23;;;;;;;13.83;8.37;;;;;;;-141.97;45.64;47699.75;4955711;28;20153;-88
2023/03/19 07:23:49;;;;;;;16.17;8.50;;;;;;;-141.97;45.38;47609.41;4955431;28;20196;-90
2023/03/19 07:26:16;;;;;;;19.17;9.07;;;;;;;-141.97;45.16;47522.91;4955273;28;20223;-89
2023/03/19 07:28:41;;;;;;;16.50;7.80;;;;;;;-141.97;44.84;47795.88;4955235;28;20161;-89
2023/03/19 07:31:07;;;;;;;20.63;10.80;;;;;;;-141.97;44.59;47749.72;4970506;28;20664;-88
2023/03/19 07:33:32;;;;;;;16.90;8.00;;;;;;;-141.97;43.01;47743.97;4971454;28;20535;-86
2023/03/19 07:35:58;;;;;;;13.97;7.57;;;;;;;-141.97;44.06;47484.47;4955209;28;20252;-88
2023/03/19 07:38:23;;;;;;;12.70;6.03;;;;;;;-141.97;43.37;47584.44;4970847;28;20284;-88
2023/03/19 07:40:49;;;;;;;17.57;8.43;;;;;;;-141.97;42.95;47565.22;4954777;28;20617;-90
2023/03/19 07:43:15;;;;;;;14.17;8.00;;;;;;;-141.97;42.36;47626.72;4969577;28;20196;-89
2023/03/19 07:45:40;;;;;;;12.50;6.53;;;;;;;-141.97;41.79;47669.00;4954331;28;20548;-90
2023/03/19 07:48:06;;;;;;;12.87;7.70;;;;;;;-141.97;41.93;47611.34;4954673;28;20244;-88
2023/03/19 07:50:32;;;;;;;12.67;7.70;;;;;;;-141.97;41.54;47678.63;4954573;28;20165;-86
2023/03/19 07:52:57;;;;;;;19.67;8.97;;;;;;;-141.97;40.67;47647.84;4954625;28;20618;-87
2023/03/19 07:55:23;;;;;;;11.30;7.27;;;;;;;-141.97;40.15;47720.91;4955571;29;20160;-89
2023/03/19 07:57:48;;;;;;;20.33;9.33;;;;;;;-141.97;37.54;47622.88;4986864;28;20488;-86
2023/03/19 08:00:14;;;;;;;22.00;9.73;;;;;;;-141.97;38.38;47511.38;4970076;28;20367;-86
2023/03/19 08:02:41;;;;;;;18.80;9.20;;;;;;;-141.97;38.85;47659.38;4955741;28;20268;-86
2023/03/19 08:05:08;;;;;;;12.97;7.20;;;;;;;-141.97;38.16;47549.84;4954785;28;20189;-88
2023/03/19 08:07:34;;;;;;;11.80;7.07;;;;;;;-141.97;38.21;47559.44;4954696;28;20177;-87
2023/03/19 08:09:59;;;;;;;13.77;8.17;;;;;;;-141.97;36.41;47663.22;4954722;29;20287;-86
2023/03/19 08:12:25;;;;;;;17.57;10.00;;;;;;;-141.97;35.75;47661.31;4957104;29;20630;-85
2023/03/19 08:14:50;;;;;;;10.60;6.27;;;;;;;-141.97;35.55;47474.88;4953818;29;20168;-87
2023/03/19 08:17:16;;;;;;;14.80;9.83;;;;;;;-141.97;35.39;47670.91;4954947;29;20220;-89
2023/03/19 08:19:42;;;;;;;10.90;6.40;;;;;;;-141.97;35.52;47665.16;4954677;29;20191;-89
2023/03/19 08:22:08;;;;;;;11.30;7.00;;;;;;;-141.97;35.94;47501.78;4971315;28;20180;-89
2023/03/19 08:24:35;;;;;;;15.77;9.30;;;;;;;-141.97;35.29;47595.97;4954083;29;20205;-89
2023/03/19 08:27:00;;;;;;;15.03;8.07;;;;;;;-141.97;35.36;47592.13;4954355;29;20164;-86
2023/03/19 08:29:26;;;;;;;15.27;8.77;;;;;;;-141.97;34.62;47559.44;4955418;29;20173;-88
2023/03/19 08:31:55;;;;;;;20.23;11.70;;;;;;;-141.97;34.42;47524.84;4956062;29;20161;-88
2023/03/19 08:34:22;;;;;;;15.30;8.57;;;;;;;-141.97;34.10;47582.50;4954244;29;20251;-88
2023/03/19 08:36:47;;;;;;;11.53;6.97;;;;;;;-141.97;33.75;47663.22;4970508;28;20267;-90
2023/03/19 08:39:13;;;;;;;12.10;7.50;;;;;;;-141.97;34.10;47569.06;4956145;29;20618;-87
2023/03/19 08:41:39;;;;;;;13.90;8.80;;;;;;;-141.97;34.33;47759.34;4955624;29;20169;-88
2023/03/19 08:44:04;;;;;;;11.73;8.00;;;;;;;-141.97;33.41;47482.56;4970083;28;20200;-90
2023/03/19 08:46:30;;;;;;;9.00;5.20;;;;;;;-141.97;33.41;47707.44;4954229;29;20271;-90
2023/03/19 08:48:56;;;;;;;10.07;6.60;;;;;;;-141.97;33.34;47440.28;4955484;29;20156;-88
2023/03/19 08:51:24;;;;;;;12.63;6.63;;;;;;;-141.97;34.11;47488.31;4958248;29;20184;-87
2023/03/19 08:53:49;;;;;;;12.80;7.37;;;;;;;-141.97;33.70;47536.38;4975234;28;20165;-87
2023/03/19 08:56:15;;;;;;;12.60;6.83;;;;;;;-141.97;32.83;47572.91;4955497;29;20173;-87
2023/03/19 08:58:41;;;;;;;11.00;5.83;;;;;;;-141.97;32.49;47622.88;4969860;28;20169;-89
2023/03/19 09:01:09;;;;;;;13.70;6.70;;;;;;;-141.97;32.46;47572.91;4955035;29;20208;-87
2023/03/19 09:03:39;;;;;;;11.13;6.33;;;;;;;-141.97;32.59;47565.22;4955562;29;20292;-88
2023/03/19 09:06:07;;;;;;;9.03;5.37;;;;;;;-141.97;33.15;47638.25;4953899;29;20632;-88
2023/03/19 09:08:33;;;;;;;10.30;5.43;;;;;;;-141.97;32.17;47607.50;4953128;29;20641;-88
2023/03/19 09:10:58;;;;;;;8.70;5.40;;;;;;;-141.97;31.35;47651.69;4952378;29;20271;-89
2023/03/19 09:13:24;;;;;;;8.60;5.50;;;;;;;-141.97;31.18;47684.38;4954135;29;20218;-90
2023/03/19 09:15:50;;;;;;;12.53;7.83;;;;;;;-141.97;31.04;47634.41;4954175;29;20214;-88
2023/03/19 09:18:17;;;;;;;10.67;7.20;;;;;;;-141.97;30.89;47615.19;4969057;28;20177;-88
2023/03/19 09:20:42;;;;;;;7.20;5.00;;;;;;;-141.97;30.62;47538.28;4955388;29;20173;-87
2023/03/19 09:23:08;;;;;;;7.63;5.30;;;;;;;-141.97;30.53;47576.75;4954951;29;20203;-89
2023/03/19 09:25:34;;;;;;;7.10;4.90;;;;;;;-141.97;30.95;47711.28;4954255;29;20176;-87
2023/03/19 09:27:59;;;;;;;8.13;5.00;;;;;;;-141.97;31.55;47738.19;4954412;29;20227;-87
2023/03/19 09:30:25;;;;;;;7.80;4.80;;;;;;;-141.97;30.83;47588.28;4955669;29;20157;-89
2023/03/19 09:32:51;;;;;;;6.23;4.40;;;;;;;-141.97;30.76;47749.72;4954550;29;20169;-88
2023/03/19 09:35:16;;;;;;;7.80;4.57;;;;;;;-141.97;30.36;47628.63;4953581;28;20179;-89
2023/03/19 09:37:41;;;;;;;8.63;6.17;;;;;;;-141.97;30.49;47542.16;4969296;28;20657;-83
2023/03/19 09:40:19;;;;;;;9.67;5.50;;;;;;;-141.97;30.41;47619.03;4953208;29;20571;-84
2023/03/19 09:42:54;;;;;;;9.60;6.10;;;;;;;-141.97;32.01;47634.41;4953117;29;20199;-85
2023/03/19 09:45:20;;;;;;;8.83;6.30;;;;;;;-141.97;31.38;47718.97;4953285;29;20168;-84
2023/03/19 09:47:52;;;;;;;10.37;5.90;;;;;;;-141.97;30.49;47678.63;4953375;29;20172;-83
2023/03/19 09:50:22;;;;;;;9.60;5.80;;;;;;;-141.97;30.72;47620.94;4954071;29;20183;-83
2023/03/19 09:53:13;;;;;;;8.63;5.80;;;;;;;-141.97;31.80;47501.78;4953963;29;20558;-84
2023/03/19 09:55:50;;;;;;;8.47;5.60;;;;;;;-141.97;32.15;47496.00;4953319;29;20177;-85
2023/03/19 09:58:29;;;;;;;9.80;5.80;;;;;;;-141.97;32.05;47607.50;4952839;29;20203;-85
2023/03/19 10:00:56;;;;;;;7.77;5.40;;;;;;;-141.97;31.10;47565.22;4952870;29;20184;-85
2023/03/19 10:03:37;;;;;;;7.27;4.80;;;;;;;-141.97;30.80;47615.19;4952887;29;20279;-83
2023/03/19 10:06:17;;;;;;;8.87;5.27;;;;;;;-141.97;31.12;47634.41;4952767;29;20207;-83
2023/03/19 10:09:04;;;;;;;9.60;4.97;;;;;;;-141.97;31.17;47640.16;4953541;28;20165;-84
2023/03/19 10:11:35;;;;;;;8.40;5.70;;;;;;;-141.97;30.94;47617.09;4956270;29;20177;-84
2023/03/19 10:14:16;;;;;;;6.93;4.40;;;;;;;-141.97;31.20;47634.41;4957109;29;20165;-85
2023/03/19 10:16:46;;;;;;;4.70;3.90;;;;;;;-141.97;30.75;47753.56;4956676;29;20169;-84
2023/03/19 10:19:17;;;;;;;5.03;3.97;;;;;;;-141.97;30.80;47615.19;4956286;29;20161;-83
2023/03/19 10:21:50;;;;;;;5.10;3.67;;;;;;;-141.97;30.73;47738.19;4961367;29;20176;-85
2023/03/19 10:24:41;;;;;;;4.63;3.20;;;;;;;-141.97;31.12;47595.97;4957005;29;20188;-85
2023/03/19 10:27:13;;;;;;;4.77;3.50;;;;;;;-141.97;30.81;47738.19;4964553;28;20254;-84
2023/03/19 10:29:40;;;;;;;4.27;3.30;;;;;;;-141.97;31.27;47649.78;4990164;28;20226;-84
2023/03/19 10:32:19;;;;;;;4.23;3.40;;;;;;;-141.97;31.37;47590.19;4973687;28;20238;-84
2023/03/19 10:34:47;;;;;;;5.37;3.87;;;;;;;-141.97;31.25;47757.41;4973230;28;20172;-85
2023/03/19 10:37:28;;;;;;;4.70;3.57;;;;;;;-141.97;31.52;47611.34;4973628;28;20547;-85
2023/03/19 10:39:59;;;;;;;6.53;3.67;;;;;;;-141.97;31.71;47624.78;4957641;28;20672;-85
2023/03/19 10:42:40;;;;;;;5.73;3.90;;;;;;;-141.97;31.27;47592.13;4973668;28;20195;-85
2023/03/19 10:45:25;;;;;;;7.13;4.97;;;;;;;-141.97;31.30;47547.91;4973280;28;20202;-86
2023/03/19 10:47:51;;;;;;;5.77;3.77;;;;;;;-141.97;30.92;47603.66;4973255;28;20193;-84
2023/03/19 10:50:26;;;;;;;5.97;4.13;;;;;;;-141.97;30.25;47394.16;4973100;28;20194;-84
2023/03/19 10:53:19;;;;;;;5.40;4.30;;;;;;;-141.97;30.25;47717.06;4973435;28;20194;-85
2023/03/19 10:55:49;;;;;;;11.90;7.83;;;;;;;-141.97;30.53;47597.88;4915448;29;20624;-84
2023/03/19 10:58:21;;;;;;;8.83;6.47;;;;;;;-141.97;30.46;47530.59;4915756;29;20194;-85
2023/03/19 11:00:54;;;;;;;7.60;4.20;;;;;;;-141.97;30.45;47599.81;4915178;29;20190;-85
2023/03/19 11:03:33;;;;;;;5.50;4.00;;;;;;;-141.97;30.52;47459.50;4915248;29;20269;-84
2023/03/19 11:06:06;;;;;;;4.93;4.20;;;;;;;-141.97;30.52;47617.09;4915296;29;20570;-84
2023/03/19 11:08:36;;;;;;;4.90;3.80;;;;;;;-141.97;30.39;47599.81;4915120;29;20189;-84